createdAt,value
2023-05-13T00:00:34.807Z,66.22
2023-05-13T00:03:02.787Z,65.75
2023-05-13T00:05:32.310Z,66.05
2023-05-13T00:08:02.282Z,65.55
2023-05-13T00:10:29.966Z,65.63
2023-05-13T00:12:57.739Z,65.72
2023-05-13T00:15:24.588Z,66.04
2023-05-13T00:17:52.387Z,66.06
2023-05-13T00:20:20.041Z,65.99
2023-05-13T00:22:48.031Z,66.81
2023-05-13T00:25:16.125Z,67.01
2023-05-13T00:27:43.813Z,67.26
2023-05-13T00:30:13.139Z,67.31
2023-05-13T00:32:40.995Z,67.23
2023-05-13T00:35:10.584Z,67.56
2023-05-13T00:37:38.318Z,67.40
2023-05-13T00:40:09.205Z,67.42
2023-05-13T00:42:36.991Z,68.33
2023-05-13T00:45:05.241Z,68.12
2023-05-13T00:47:33.622Z,68.27
2023-05-13T00:50:01.459Z,68.68
2023-05-13T00:52:29.573Z,68.35
2023-05-13T00:54:59.085Z,68.57
2023-05-13T00:57:26.873Z,68.24
2023-05-13T00:59:54.793Z,68.59
2023-05-13T01:02:32.699Z,69.20
2023-05-13T01:05:12.987Z,68.87
2023-05-13T01:07:59.688Z,68.84
2023-05-13T01:10:44.737Z,68.89
2023-05-13T01:13:16.332Z,68.75
2023-05-13T01:16:28.808Z,70.22
2023-05-13T01:19:04.998Z,70.17
2023-05-13T01:21:36.861Z,69.66
2023-05-13T01:24:04.071Z,69.50
2023-05-13T01:26:32.004Z,69.81
2023-05-13T01:28:59.713Z,69.39
2023-05-13T01:31:28.002Z,68.86
2023-05-13T01:33:56.193Z,69.16
2023-05-13T01:36:23.557Z,69.28
2023-05-13T01:38:52.660Z,70.15
2023-05-13T01:41:20.939Z,69.33
2023-05-13T01:43:47.848Z,69.58
2023-05-13T01:46:16.175Z,69.71
2023-05-13T01:48:43.210Z,69.76
2023-05-13T01:51:10.434Z,70.01
2023-05-13T01:53:38.671Z,69.66
2023-05-13T01:56:10.694Z,69.79
2023-05-13T01:58:38.437Z,69.98
2023-05-13T02:01:06.379Z,69.61
2023-05-13T02:03:34.287Z,69.21
2023-05-13T02:06:04.239Z,68.88
2023-05-13T02:08:31.926Z,69.22
2023-05-13T02:11:01.016Z,69.25
2023-05-13T02:13:27.905Z,69.82
2023-05-13T02:16:14.621Z,69.47
2023-05-13T02:18:42.446Z,69.72
2023-05-13T02:21:10.446Z,70.61
2023-05-13T02:23:38.096Z,70.34
2023-05-13T02:26:05.993Z,71.06
2023-05-13T02:28:52.375Z,71.32
2023-05-13T02:31:20.215Z,71.20
2023-05-13T02:36:31.377Z,71.59
2023-05-13T02:38:59.177Z,70.83
2023-05-13T02:41:26.972Z,71.98
2023-05-13T02:43:54.608Z,71.21
2023-05-13T02:46:22.447Z,71.01
2023-05-13T02:48:50.315Z,70.81
2023-05-13T02:51:18.061Z,70.81
2023-05-13T02:53:45.857Z,70.99
2023-05-13T02:56:16.306Z,70.72
2023-05-13T02:58:44.177Z,69.97
2023-05-13T03:01:12.061Z,70.00
2023-05-13T03:03:39.127Z,69.73
2023-05-13T03:06:07.154Z,69.95
2023-05-13T03:08:34.885Z,70.14
2023-05-13T03:11:01.849Z,69.67
2023-05-13T03:13:29.616Z,70.08
2023-05-13T03:15:57.473Z,70.35
2023-05-13T03:18:28.894Z,69.71
2023-05-13T03:20:56.795Z,70.04
2023-05-13T03:23:24.596Z,70.11
2023-05-13T03:25:52.404Z,70.37
2023-05-13T03:28:20.098Z,70.35
2023-05-13T03:30:47.721Z,70.05
2023-05-13T03:33:15.467Z,70.76
2023-05-13T03:35:43.357Z,71.07
2023-05-13T03:38:11.215Z,70.75
2023-05-13T03:40:40.708Z,70.98
2023-05-13T03:43:08.446Z,70.55
2023-05-13T03:45:36.171Z,70.04
2023-05-13T03:48:03.161Z,69.83
2023-05-13T03:50:31.875Z,69.32
2023-05-13T03:53:02.296Z,69.76
2023-05-13T03:55:29.105Z,69.41
2023-05-13T03:57:56.905Z,70.13
2023-05-13T04:00:24.665Z,70.65
2023-05-13T04:02:52.653Z,71.64
2023-05-13T04:05:20.152Z,72.54
2023-05-13T04:07:49.078Z,71.75
2023-05-13T04:10:16.823Z,72.06
2023-05-13T04:12:44.609Z,71.93
2023-05-13T04:15:11.639Z,72.62
2023-05-13T04:17:38.517Z,72.60
2023-05-13T04:20:07.087Z,72.16
2023-05-13T04:22:36.021Z,72.06
2023-05-13T04:25:04.275Z,71.83
2023-05-13T04:27:31.101Z,71.80
2023-05-13T04:29:58.883Z,71.32
2023-05-13T04:32:26.567Z,71.22
2023-05-13T04:34:53.956Z,71.30
2023-05-13T04:37:21.003Z,70.96
2023-05-13T04:39:48.318Z,71.50
2023-05-13T04:42:16.586Z,71.62
2023-05-13T04:44:44.811Z,71.70
2023-05-13T04:47:12.523Z,70.84
2023-05-13T04:49:39.375Z,70.49
2023-05-13T04:52:07.771Z,70.71
2023-05-13T04:54:36.052Z,71.12
2023-05-13T04:57:03.748Z,70.24
2023-05-13T04:59:31.948Z,70.53
2023-05-13T05:01:58.886Z,70.12
2023-05-13T05:04:27.915Z,69.76
2023-05-13T05:06:55.696Z,69.80
2023-05-13T05:09:23.476Z,69.60
2023-05-13T05:11:50.707Z,70.24
2023-05-13T05:14:17.873Z,70.19
2023-05-13T05:16:46.051Z,70.10
2023-05-13T05:19:13.859Z,70.50
2023-05-13T05:21:41.756Z,70.31
2023-05-13T05:24:09.470Z,70.85
2023-05-13T05:26:36.403Z,70.23
2023-05-13T05:29:05.149Z,70.22
2023-05-13T05:31:33.224Z,70.25
2023-05-13T05:34:01.783Z,71.08
2023-05-13T05:36:31.505Z,70.72
2023-05-13T05:38:59.266Z,73.53
2023-05-13T05:41:26.341Z,73.50
2023-05-13T05:43:53.180Z,73.01
2023-05-13T05:46:22.957Z,75.34
2023-05-13T05:48:50.009Z,74.99
2023-05-13T05:51:16.888Z,75.50
2023-05-13T05:53:45.612Z,75.54
2023-05-13T05:56:12.501Z,75.73
2023-05-13T05:58:40.451Z,76.00
2023-05-13T06:01:08.531Z,76.86
2023-05-13T06:03:35.607Z,76.82
2023-05-13T06:06:04.350Z,76.32
2023-05-13T06:08:33.002Z,75.09
2023-05-13T06:11:00.978Z,74.86
2023-05-13T06:13:28.982Z,75.04
2023-05-13T06:15:57.876Z,75.90
2023-05-13T06:18:26.847Z,75.56
2023-05-13T06:20:55.791Z,76.10
2023-05-13T06:23:24.504Z,75.34
2023-05-13T06:25:52.460Z,74.76
2023-05-13T06:28:21.177Z,74.89
2023-05-13T06:30:49.161Z,74.88
2023-05-13T06:33:17.142Z,74.50
2023-05-13T06:35:48.188Z,74.30
2023-05-13T06:38:17.885Z,74.25
2023-05-13T06:40:46.610Z,74.64
2023-05-13T06:43:16.639Z,74.06
2023-05-13T06:45:43.697Z,74.33
2023-05-13T06:48:10.753Z,74.15
2023-05-13T06:50:37.776Z,74.33
2023-05-13T06:53:04.848Z,74.62
2023-05-13T06:55:32.813Z,73.47
2023-05-13T06:58:00.636Z,73.10
2023-05-13T07:00:28.330Z,72.58
2023-05-13T07:02:56.167Z,71.55
2023-05-13T07:05:27.125Z,71.45
2023-05-13T07:07:54.880Z,72.46
2023-05-13T07:10:22.267Z,71.15
2023-05-13T07:12:52.997Z,70.41
2023-05-13T07:15:20.241Z,68.87
2023-05-13T07:18:04.314Z,68.77
2023-05-13T07:20:32.784Z,69.73
2023-05-13T07:23:00.483Z,69.05
2023-05-13T07:25:28.434Z,69.88
2023-05-13T07:27:57.021Z,69.67
2023-05-13T07:30:25.164Z,68.52
2023-05-13T07:32:54.148Z,68.68
2023-05-13T07:35:24.641Z,68.36
2023-05-13T07:37:53.354Z,67.59
2023-05-13T07:40:22.299Z,67.85
2023-05-13T07:42:49.425Z,67.14
2023-05-13T07:45:17.346Z,66.25
2023-05-13T07:47:46.115Z,66.52
2023-05-13T07:50:14.675Z,67.18
2023-05-13T07:52:43.836Z,67.17
2023-05-13T07:55:11.722Z,67.23
2023-05-13T07:57:40.268Z,66.72
2023-05-13T08:00:08.906Z,67.36
2023-05-13T08:02:39.394Z,66.77
2023-05-13T08:05:08.605Z,66.36
2023-05-13T08:07:36.471Z,66.66
2023-05-13T08:10:05.527Z,65.65
2023-05-13T08:12:34.437Z,65.99
2023-05-13T08:15:04.748Z,65.50
2023-05-13T08:17:35.085Z,65.59
2023-05-13T08:20:04.212Z,65.29
2023-05-13T08:22:32.808Z,65.97
2023-05-13T08:25:01.342Z,64.95
2023-05-13T08:27:29.834Z,64.87
2023-05-13T08:29:58.560Z,64.51
2023-05-13T08:32:26.400Z,64.01
2023-05-13T08:34:55.163Z,63.94
2023-05-13T08:37:23.750Z,63.99
2023-05-13T08:39:51.814Z,64.35
2023-05-13T08:42:22.996Z,63.75
2023-05-13T08:44:52.761Z,63.05
2023-05-13T08:47:44.167Z,62.31
2023-05-13T08:50:13.572Z,62.24
2023-05-13T08:52:43.513Z,61.65
2023-05-13T08:55:12.813Z,61.61
2023-05-13T08:57:41.600Z,61.06
2023-05-13T09:00:10.800Z,61.05
2023-05-13T09:02:39.488Z,60.94
2023-05-13T09:05:09.609Z,61.72
2023-05-13T09:07:39.678Z,60.75
2023-05-13T09:10:09.639Z,60.42
2023-05-13T09:12:45.888Z,61.03
2023-05-13T09:15:22.185Z,61.00
2023-05-13T09:17:59.534Z,60.57
2023-05-13T09:20:28.875Z,61.88
2023-05-13T09:23:00.452Z,61.35
2023-05-13T09:25:30.858Z,59.53
2023-05-13T09:28:01.795Z,59.16
2023-05-13T09:30:40.601Z,57.94
2023-05-13T09:33:10.564Z,58.33
2023-05-13T09:35:41.797Z,57.76
2023-05-13T09:38:16.577Z,58.36
2023-05-13T09:41:01.805Z,57.44
2023-05-13T09:43:33.065Z,58.22
2023-05-13T09:46:05.282Z,58.03
2023-05-13T09:48:34.406Z,56.25
2023-05-13T09:51:03.211Z,55.85
2023-05-13T09:53:31.782Z,56.13
2023-05-13T09:56:02.193Z,55.99
2023-05-13T09:58:31.348Z,55.38
2023-05-13T10:01:00.674Z,54.98
2023-05-13T10:03:31.543Z,55.34
2023-05-13T10:06:03.374Z,54.00
2023-05-13T10:08:31.682Z,53.69
2023-05-13T10:11:00.273Z,54.05
2023-05-13T10:13:31.693Z,55.32
2023-05-13T10:15:59.657Z,54.73
2023-05-13T10:18:29.276Z,54.80
2023-05-13T10:20:57.613Z,55.46
2023-05-13T10:23:31.264Z,54.04
2023-05-13T10:26:00.391Z,54.27
2023-05-13T10:28:29.699Z,54.21
2023-05-13T10:30:58.257Z,54.53
2023-05-13T10:33:27.599Z,52.00
2023-05-13T10:36:33.438Z,52.49
2023-05-13T10:39:32.077Z,51.14
2023-05-13T10:42:39.335Z,52.17
2023-05-13T10:45:08.721Z,51.54
2023-05-13T10:47:37.927Z,51.76
2023-05-13T10:50:07.547Z,52.13
2023-05-13T10:52:47.973Z,51.50
2023-05-13T10:55:21.246Z,51.25
2023-05-13T10:58:15.320Z,52.66
2023-05-13T11:00:45.066Z,51.75
2023-05-13T11:03:29.444Z,51.12
2023-05-13T11:06:17.690Z,49.67
2023-05-13T11:08:48.075Z,49.23
2023-05-13T11:11:22.806Z,48.65
2023-05-13T11:14:13.413Z,48.25
2023-05-13T11:16:47.540Z,48.60
2023-05-13T11:19:30.024Z,47.98
2023-05-13T11:22:05.446Z,47.80
2023-05-13T11:24:34.657Z,48.20
2023-05-13T11:27:19.704Z,47.13
2023-05-13T11:29:55.687Z,47.39
2023-05-13T11:32:58.525Z,45.98
2023-05-13T11:35:33.801Z,47.35
2023-05-13T11:38:03.566Z,47.26
2023-05-13T11:40:34.844Z,45.93
2023-05-13T11:43:05.241Z,46.55
2023-05-13T11:45:39.316Z,46.51
2023-05-13T11:48:21.741Z,46.62
2023-05-13T11:50:52.401Z,44.98
2023-05-13T11:53:25.177Z,45.67
2023-05-13T11:55:55.643Z,44.25
2023-05-13T11:58:24.856Z,44.18
2023-05-13T12:00:55.027Z,44.48
2023-05-13T12:03:23.750Z,42.06
2023-05-13T12:06:03.604Z,42.71
2023-05-13T12:08:31.892Z,42.57
2023-05-13T12:11:00.724Z,43.81
2023-05-13T12:13:28.494Z,43.61
2023-05-13T12:15:57.279Z,44.52
2023-05-13T12:18:25.288Z,44.50
2023-05-13T12:20:53.883Z,42.65
2023-05-13T12:23:21.595Z,42.17
2023-05-13T12:25:53.665Z,43.40
2023-05-13T12:28:24.483Z,43.00
2023-05-13T12:30:54.508Z,42.11
2023-05-13T12:33:26.944Z,41.94
2023-05-13T12:36:14.611Z,42.64
2023-05-13T12:38:59.583Z,41.75
2023-05-13T12:41:34.928Z,42.47
2023-05-13T12:44:10.430Z,42.40
2023-05-13T12:46:40.334Z,43.31
2023-05-13T12:49:09.835Z,43.60
2023-05-13T12:51:38.448Z,44.78
2023-05-13T12:54:07.025Z,43.63
2023-05-13T12:56:34.777Z,42.15
2023-05-13T12:59:02.564Z,42.75
2023-05-13T13:01:30.441Z,42.92
2023-05-13T13:03:58.375Z,43.45
2023-05-13T13:06:26.350Z,44.28
2023-05-13T13:08:54.115Z,43.78
2023-05-13T13:11:21.929Z,43.55
2023-05-13T13:13:50.834Z,43.53
2023-05-13T13:16:19.426Z,42.27
2023-05-13T13:18:48.094Z,43.02
2023-05-13T13:21:16.234Z,43.27
2023-05-13T13:23:44.777Z,43.91
2023-05-13T13:26:12.605Z,43.78
2023-05-13T13:28:40.492Z,44.16
2023-05-13T13:31:09.157Z,44.87
2023-05-13T13:33:37.797Z,44.70
2023-05-13T13:36:05.891Z,46.75
2023-05-13T13:38:33.618Z,46.08
2023-05-13T13:41:01.433Z,45.81
2023-05-13T13:43:29.623Z,46.61
2023-05-13T13:45:58.210Z,45.61
2023-05-13T13:48:26.253Z,45.96
2023-05-13T13:50:55.119Z,44.28
2023-05-13T13:53:22.783Z,44.15
2023-05-13T13:55:50.645Z,44.46
2023-05-13T13:58:19.428Z,45.65
2023-05-13T14:00:47.405Z,45.05
2023-05-13T14:03:16.094Z,44.90
2023-05-13T14:05:44.247Z,44.79
2023-05-13T14:08:12.076Z,45.29
2023-05-13T14:10:40.267Z,45.08
2023-05-13T14:13:07.918Z,45.45
2023-05-13T14:15:39.293Z,45.35
2023-05-13T14:18:09.906Z,45.28
2023-05-13T14:20:39.151Z,45.09
2023-05-13T14:23:07.756Z,43.43
2023-05-13T14:25:36.031Z,44.25
2023-05-13T14:28:05.038Z,43.52
2023-05-13T14:30:33.970Z,44.28
2023-05-13T14:33:02.051Z,43.72
2023-05-13T14:35:30.186Z,44.81
2023-05-13T14:37:58.061Z,45.53
2023-05-13T14:40:25.747Z,44.63
2023-05-13T14:42:54.520Z,45.28
2023-05-13T14:45:22.992Z,43.97
2023-05-13T14:47:54.006Z,44.47
2023-05-13T14:50:22.132Z,45.01
2023-05-13T14:52:50.996Z,44.92
2023-05-13T14:55:19.351Z,46.09
2023-05-13T14:57:47.275Z,44.65
2023-05-13T15:00:15.566Z,46.02
2023-05-13T15:02:44.197Z,46.41
2023-05-13T15:05:12.952Z,47.57
2023-05-13T15:07:40.939Z,47.29
2023-05-13T15:10:09.985Z,46.92
2023-05-13T15:12:38.731Z,46.40
2023-05-13T15:15:06.974Z,47.82
2023-05-13T15:17:34.697Z,47.94
2023-05-13T15:20:02.664Z,47.46
2023-05-13T15:22:32.706Z,47.25
2023-05-13T15:25:01.828Z,47.75
2023-05-13T15:27:29.574Z,46.81
2023-05-13T15:29:57.199Z,46.73
2023-05-13T15:32:25.039Z,47.04
2023-05-13T15:34:52.786Z,48.00
2023-05-13T15:37:20.586Z,47.83
2023-05-13T15:39:48.833Z,47.07
2023-05-13T15:42:17.330Z,47.45
2023-05-13T15:44:45.988Z,49.92
2023-05-13T15:47:14.459Z,48.78
2023-05-13T15:49:42.408Z,49.41
2023-05-13T15:52:11.204Z,49.79
2023-05-13T15:54:38.990Z,49.51
2023-05-13T15:57:06.578Z,49.31
2023-05-13T15:59:34.187Z,49.71
2023-05-13T16:02:02.402Z,49.72
2023-05-13T16:04:30.397Z,50.01
2023-05-13T16:06:58.165Z,49.97
2023-05-13T16:09:26.242Z,49.48
2023-05-13T16:11:55.630Z,49.49
2023-05-13T16:14:23.547Z,49.34
2023-05-13T16:16:51.261Z,50.15
2023-05-13T16:19:19.012Z,50.53
2023-05-13T16:21:46.766Z,50.87
2023-05-13T16:24:14.623Z,51.27
2023-05-13T16:26:42.161Z,51.28
2023-05-13T16:29:09.844Z,51.45
2023-05-13T16:31:37.664Z,51.87
2023-05-13T16:34:05.520Z,52.43
2023-05-13T16:36:33.444Z,53.27
2023-05-13T16:39:02.333Z,53.50
2023-05-13T16:41:30.204Z,53.93
2023-05-13T16:43:57.170Z,54.20
2023-05-13T16:46:24.941Z,53.85
2023-05-13T16:48:52.808Z,53.36
2023-05-13T16:51:23.505Z,53.85
2023-05-13T16:53:51.983Z,55.57
2023-05-13T16:56:19.818Z,55.73
2023-05-13T16:58:48.223Z,56.16
2023-05-13T17:01:16.332Z,56.45
2023-05-13T17:03:44.432Z,56.25
2023-05-13T17:06:11.589Z,55.67
2023-05-13T17:08:39.382Z,56.42
2023-05-13T17:11:07.922Z,55.54
2023-05-13T17:13:36.618Z,55.71
2023-05-13T17:16:03.742Z,55.22
2023-05-13T17:18:31.667Z,55.48
2023-05-13T17:21:03.897Z,56.06
2023-05-13T17:23:31.139Z,56.02
2023-05-13T17:25:58.020Z,55.39
2023-05-13T17:28:25.085Z,55.44
2023-05-13T17:30:52.000Z,55.95
2023-05-13T17:33:19.754Z,55.87
2023-05-13T17:35:48.963Z,55.52
2023-05-13T17:38:17.788Z,55.46
2023-05-13T17:40:46.650Z,55.63
2023-05-13T17:43:15.175Z,55.36
2023-05-13T17:45:45.310Z,55.35
2023-05-13T17:48:14.228Z,55.99
2023-05-13T17:50:42.318Z,56.34
2023-05-13T17:53:10.164Z,56.40
2023-05-13T17:55:37.096Z,56.63
2023-05-13T17:58:04.875Z,56.38
2023-05-13T18:00:32.661Z,55.98
2023-05-13T18:03:00.570Z,55.90
2023-05-13T18:05:28.715Z,55.53
2023-05-13T18:07:57.597Z,56.16
2023-05-13T18:10:28.994Z,56.58
2023-05-13T18:12:55.971Z,56.00
2023-05-13T18:15:22.933Z,56.11
2023-05-13T18:17:50.895Z,56.01
2023-05-13T18:20:19.948Z,57.25
2023-05-13T18:22:47.863Z,58.02
2023-05-13T18:25:15.833Z,57.13
2023-05-13T18:27:42.887Z,56.42
2023-05-13T18:30:11.355Z,56.27
2023-05-13T18:32:38.780Z,56.08
2023-05-13T18:35:07.050Z,56.57
2023-05-13T18:37:34.480Z,56.25
2023-05-13T18:40:02.569Z,56.32
2023-05-13T18:42:30.560Z,56.28
2023-05-13T18:44:58.538Z,56.19
2023-05-13T18:47:26.255Z,55.46
2023-05-13T18:49:54.150Z,55.81
2023-05-13T18:52:22.184Z,55.79
2023-05-13T18:54:50.154Z,55.53
2023-05-13T18:57:17.222Z,55.43
2023-05-13T18:59:44.823Z,55.75
2023-05-13T19:02:23.278Z,55.28
2023-05-13T19:04:50.237Z,56.12
2023-05-13T19:07:17.181Z,56.42
2023-05-13T19:09:44.144Z,56.40
2023-05-13T19:12:11.889Z,57.47
2023-05-13T19:14:38.711Z,57.29
2023-05-13T19:17:10.429Z,57.44
2023-05-13T19:19:43.352Z,57.82
2023-05-13T19:22:11.151Z,57.23
2023-05-13T19:24:39.072Z,57.17
2023-05-13T19:27:08.570Z,56.67
2023-05-13T19:29:35.631Z,57.32
2023-05-13T19:32:03.491Z,57.65
2023-05-13T19:34:32.146Z,57.75
2023-05-13T19:37:00.169Z,57.46
2023-05-13T19:39:27.818Z,57.71
2023-05-13T19:41:55.939Z,59.16
2023-05-13T19:44:23.944Z,58.99
2023-05-13T19:46:51.738Z,58.94
2023-05-13T19:49:26.271Z,59.28
2023-05-13T19:51:54.734Z,58.72
2023-05-13T19:54:22.672Z,58.67
2023-05-13T19:56:50.601Z,58.47
2023-05-13T19:59:18.304Z,58.27
2023-05-13T20:01:46.130Z,57.83
2023-05-13T20:04:14.034Z,57.51
2023-05-13T20:06:41.428Z,56.99
2023-05-13T20:09:10.683Z,57.07
2023-05-13T20:11:39.410Z,57.43
2023-05-13T20:14:07.968Z,57.79
2023-05-13T20:16:36.117Z,57.73
2023-05-13T20:19:04.978Z,58.52
2023-05-13T20:21:33.965Z,58.41
2023-05-13T20:24:02.791Z,58.73
2023-05-13T20:26:29.820Z,58.58
2023-05-13T20:28:58.678Z,58.96
2023-05-13T20:31:29.110Z,58.96
2023-05-13T20:33:58.932Z,59.32
2023-05-13T20:36:27.826Z,58.84
2023-05-13T20:38:55.958Z,57.88
2023-05-13T20:41:23.966Z,59.03
2023-05-13T20:43:50.895Z,58.78
2023-05-13T20:46:20.543Z,58.28
2023-05-13T20:48:49.406Z,58.45
2023-05-13T20:51:17.416Z,58.59
2023-05-13T20:53:47.404Z,58.24
2023-05-13T20:56:16.267Z,58.76
2023-05-13T20:58:44.979Z,58.04
2023-05-13T21:01:13.890Z,58.19
2023-05-13T21:03:40.938Z,57.41
2023-05-13T21:06:11.548Z,57.72
2023-05-13T21:08:40.383Z,57.19
2023-05-13T21:11:10.412Z,57.38
2023-05-13T21:13:37.506Z,57.63
2023-05-13T21:16:06.721Z,57.32
2023-05-13T21:18:35.837Z,57.75
2023-05-13T21:21:08.697Z,57.78
2023-05-13T21:23:39.890Z,58.08
2023-05-13T21:26:07.438Z,59.18
2023-05-13T21:28:34.402Z,58.71
2023-05-13T21:31:01.358Z,58.39
2023-05-13T21:33:30.229Z,58.85
2023-05-13T21:35:57.385Z,58.96
2023-05-13T21:38:24.339Z,58.45
2023-05-13T21:40:51.311Z,58.46
2023-05-13T21:43:18.392Z,58.77
2023-05-13T21:45:48.548Z,58.16
2023-05-13T21:48:15.508Z,57.88
2023-05-13T21:50:44.423Z,58.28
2023-05-13T21:53:11.489Z,59.08
2023-05-13T21:55:40.213Z,58.61
2023-05-13T21:58:08.130Z,58.65
2023-05-13T22:00:35.007Z,58.65
2023-05-13T22:03:02.185Z,58.77
2023-05-13T22:05:29.314Z,58.20
2023-05-13T22:07:56.327Z,59.08
2023-05-13T22:10:23.304Z,58.91
2023-05-13T22:12:50.485Z,58.06
2023-05-13T22:15:17.341Z,58.77
2023-05-13T22:17:44.303Z,58.92
2023-05-13T22:20:13.102Z,59.11
2023-05-13T22:22:40.717Z,59.15
2023-05-13T22:25:08.150Z,59.38
2023-05-13T22:27:36.804Z,59.27
2023-05-13T22:30:06.602Z,59.12
2023-05-13T22:32:37.140Z,59.27
2023-05-13T22:35:05.037Z,60.25
2023-05-13T22:37:32.023Z,60.12
2023-05-13T22:39:58.807Z,59.80
2023-05-13T22:42:27.846Z,59.09
2023-05-13T22:44:56.624Z,58.91
2023-05-13T22:47:24.366Z,59.62
2023-05-13T22:49:54.337Z,61.78
2023-05-13T22:52:21.969Z,62.35
2023-05-13T22:54:49.117Z,62.26
2023-05-13T22:57:18.040Z,62.52
2023-05-13T22:59:47.846Z,62.65
2023-05-13T23:02:14.670Z,61.49
2023-05-13T23:04:43.354Z,61.78
2023-05-13T23:07:10.255Z,62.04
2023-05-13T23:09:39.016Z,62.54
2023-05-13T23:12:07.150Z,62.43
2023-05-13T23:14:34.969Z,66.72
2023-05-13T23:17:04.531Z,66.04
2023-05-13T23:19:33.324Z,65.70
2023-05-13T23:22:00.330Z,67.28
2023-05-13T23:24:27.928Z,69.50
2023-05-13T23:26:54.719Z,70.15
2023-05-13T23:29:27.551Z,70.09
2023-05-13T23:31:55.440Z,71.02
2023-05-13T23:34:22.659Z,71.66
2023-05-13T23:36:50.436Z,70.98
2023-05-13T23:39:17.284Z,71.91
2023-05-13T23:41:44.374Z,72.16
2023-05-13T23:44:12.334Z,73.39
2023-05-13T23:46:39.437Z,73.97
2023-05-13T23:49:08.270Z,73.33
2023-05-13T23:51:36.498Z,76.30
2023-05-13T23:54:04.374Z,76.19
2023-05-13T23:56:32.059Z,76.49
2023-05-13T23:59:01.501Z,76.19
